Time;durP1;ratioP1;P1;durP2;ratioP2;P2;SDS_P1;SDS_P2;PMS_P1;PMS_P2;Temp;Humidity;BMP_temperature;BMP_pressure;BME280_temperature;BME280_humidity;BME280_pressure;Samples;Min_cycle;Max_cycle;Signal;HPM_P1;HPM_P2
2023/12/18 00:01:51;;;;;;;27.00;13.90;;;;;;;2.72;94.89;101548.34;134136;1302;23193;-71
2023/12/18 00:04:52;;;;;;;28.90;14.30;;;;;;;2.75;95.13;101540.09;134109;1295;23379;-71
2023/12/18 00:07:53;;;;;;;24.70;13.10;;;;;;;2.80;95.25;101534.06;134199;1304;22518;-72
2023/12/18 00:10:54;;;;;;;21.60;12.60;;;;;;;2.86;95.08;101532.54;134170;1304;22196;-71
2023/12/18 00:13:55;;;;;;;46.70;14.50;;;;;;;2.90;95.05;101520.77;134149;1303;23113;-71
2023/12/18 00:17:04;;;;;;;26.90;13.90;;;;;;;2.92;94.83;101512.45;134158;1304;22449;-71
2023/12/18 00:20:05;;;;;;;31.00;15.00;;;;;;;2.94;94.77;101507.60;134145;1302;22365;-71
2023/12/18 00:23:06;;;;;;;30.50;14.10;;;;;;;2.95;94.70;101505.47;134184;1302;22437;-71
2023/12/18 00:26:10;;;;;;;25.00;14.00;;;;;;;2.95;94.35;101503.58;134174;1304;22387;-71
2023/12/18 00:29:11;;;;;;;23.20;12.00;;;;;;;2.91;94.12;101494.64;133922;1305;22252;-71
2023/12/18 00:32:12;;;;;;;25.10;13.20;;;;;;;2.89;94.10;101491.44;134117;1298;23258;-71
2023/12/18 00:35:12;;;;;;;;;;;;;;;2.88;93.99;101493.27;134130;1305;22513;-72
2023/12/18 00:38:13;;;;;;;22.00;11.80;;;;;;;2.86;94.09;101491.61;134114;1304;23647;-71
2023/12/18 00:41:14;;;;;;;28.10;14.60;;;;;;;2.84;94.03;101485.08;134135;1305;22355;-72
2023/12/18 00:44:15;;;;;;;51.20;23.80;;;;;;;2.81;93.70;101486.48;134166;1304;23118;-72
2023/12/18 00:47:16;;;;;;;32.20;14.90;;;;;;;2.78;93.84;101484.00;134143;1305;22436;-72
2023/12/18 00:50:16;;;;;;;;;;;;;;;2.76;93.66;101480.28;134127;1304;22467;-72
2023/12/18 00:53:17;;;;;;;22.70;11.20;;;;;;;2.73;93.80;101478.54;134158;1305;22360;-72
2023/12/18 00:56:18;;;;;;;22.20;11.30;;;;;;;2.69;93.72;101482.94;134140;1298;22390;-72
2023/12/18 00:59:22;;;;;;;21.80;10.80;;;;;;;2.64;93.54;101486.30;134163;1304;23026;-72
2023/12/18 01:02:23;;;;;;;21.40;10.80;;;;;;;2.66;93.95;101479.23;134132;1298;22370;-71
2023/12/18 01:05:23;;;;;;;;;;;;;;;2.67;93.80;101479.88;134242;1298;23680;-72
2023/12/18 01:12:14;;;;;;;20.30;9.90;;;;;;;2.62;93.50;101476.29;134102;1305;23394;-72
2023/12/18 01:15:27;;;;;;;23.90;11.20;;;;;;;2.60;93.57;101467.19;134120;1298;23115;-72
2023/12/18 01:18:32;;;;;;;21.00;10.90;;;;;;;2.56;93.37;101467.57;134141;1305;23070;-72
2023/12/18 01:21:34;;;;;;;21.20;10.20;;;;;;;2.48;93.25;101469.89;134124;1298;22411;-72
2023/12/18 01:24:35;;;;;;;18.60;9.80;;;;;;;2.35;92.38;101469.01;134153;1305;22903;-71
2023/12/18 01:27:36;;;;;;;;;;;;;;;2.18;92.24;101472.70;134146;1305;22497;-72
2023/12/18 01:30:40;;;;;;;15.90;8.80;;;;;;;2.05;92.50;101471.96;134072;1305;22982;-72
2023/12/18 01:33:43;;;;;;;18.90;9.80;;;;;;;2.01;92.83;101470.60;134121;1298;22320;-72
2023/12/18 01:36:44;;;;;;;22.10;10.40;;;;;;;1.97;92.99;101470.64;134132;1304;22624;-72
2023/12/18 01:39:51;;;;;;;19.40;9.60;;;;;;;1.95;93.10;101468.48;134127;1305;22452;-72
2023/12/18 01:43:04;;;;;;;;;;;;;;;;;;;;;
2023/12/18 01:46:19;;;;;;;23.30;11.20;;;;;;;1.89;93.00;101455.73;134095;1299;22392;-71
2023/12/18 01:49:41;;;;;;;21.00;10.20;;;;;;;1.86;93.07;101448.85;134124;1305;23564;-72
2023/12/18 01:53:50;;;;;;;22.70;10.80;;;;;;;1.88;93.46;101444.23;134145;1298;22383;-72
2023/12/18 01:56:38;;;;;;;21.60;9.70;;;;;;;1.83;93.28;101441.84;134043;1305;22366;-72
2023/12/18 01:59:45;;;;;;;20.70;10.50;;;;;;;1.79;93.03;101439.27;134165;1305;22429;-72
2023/12/18 02:03:11;;;;;;;19.00;9.90;;;;;;;1.69;92.85;101439.79;134112;1303;22372;-72
2023/12/18 02:06:13;;;;;;;18.50;10.20;;;;;;;1.58;92.80;101438.58;133921;1305;22384;-72
2023/12/18 02:09:15;;;;;;;20.30;9.80;;;;;;;1.47;92.94;101440.52;134118;1298;23248;-71
2023/12/18 02:12:16;;;;;;;17.50;9.20;;;;;;;1.41;93.41;101436.13;133938;1305;22413;-72
2023/12/18 02:15:24;;;;;;;18.60;9.50;;;;;;;1.38;93.43;101436.27;134121;1305;23494;-72
2023/12/18 02:18:44;;;;;;;17.10;9.50;;;;;;;1.35;93.49;101429.63;134136;1298;22508;-71
2023/12/18 02:21:50;;;;;;;17.10;9.10;;;;;;;1.32;93.53;101432.16;133932;1305;22512;-72
2023/12/18 02:25:03;;;;;;;;;;;;;;;;;;;;;
2023/12/18 02:28:08;;;;;;;;;;;;;;;1.10;92.99;101437.12;134085;1298;22511;-72
2023/12/18 02:31:17;;;;;;;14.20;8.60;;;;;;;1.05;93.30;101432.44;134151;1298;23186;-72
2023/12/18 02:34:18;;;;;;;23.90;9.20;;;;;;;1.05;93.57;101431.61;134129;1304;22471;-71
2023/12/18 02:37:19;;;;;;;16.70;8.50;;;;;;;1.06;93.77;101431.73;134178;1291;22487;-72
2023/12/18 02:40:23;;;;;;;20.90;9.80;;;;;;;1.09;93.91;101432.10;134130;1305;23009;-72
2023/12/18 02:43:24;;;;;;;15.90;8.50;;;;;;;1.10;93.84;101431.89;133945;1305;22415;-71
2023/12/18 02:46:30;;;;;;;18.40;8.70;;;;;;;1.11;93.95;101435.34;134139;1305;22413;-72
2023/12/18 02:49:31;;;;;;;16.60;8.50;;;;;;;1.14;94.27;101434.66;134135;1304;22436;-72
2023/12/18 02:52:31;;;;;;;17.20;9.10;;;;;;;1.18;94.24;101429.40;134136;1298;22438;-72
2023/12/18 02:55:32;;;;;;;17.70;9.10;;;;;;;1.19;94.17;101425.67;134140;1305;22465;-71
2023/12/18 02:58:35;;;;;;;;;;;;;;;1.20;94.13;101419.70;134138;1298;22593;-72
2023/12/18 03:01:39;;;;;;;17.40;8.70;;;;;;;1.21;94.18;101416.00;134137;1305;23164;-72
2023/12/18 03:04:41;;;;;;;16.70;8.80;;;;;;;1.21;94.13;101413.90;134131;1305;22353;-71
2023/12/18 03:07:44;;;;;;;15.70;9.00;;;;;;;1.19;93.83;101412.98;134143;1298;22368;-72
2023/12/18 03:10:46;;;;;;;21.70;8.10;;;;;;;1.15;93.80;101411.27;134114;1298;22407;-71
2023/12/18 03:13:46;;;;;;;18.00;9.10;;;;;;;1.12;93.79;101406.86;134024;1304;22849;-72
2023/12/18 03:16:50;;;;;;;18.00;9.70;;;;;;;1.10;93.74;101410.95;134114;1301;22377;-72
2023/12/18 03:19:50;;;;;;;18.50;10.40;;;;;;;1.07;93.86;101421.02;134094;1301;22490;-72
2023/12/18 03:22:51;;;;;;;17.30;9.90;;;;;;;1.05;94.02;101420.11;134036;1305;22262;-72
2023/12/18 03:25:52;;;;;;;18.30;10.50;;;;;;;1.03;94.06;101417.55;134104;1301;22354;-72
2023/12/18 03:28:55;;;;;;;;;;;;;;;1.04;94.18;101416.67;134127;1305;23608;-72
2023/12/18 03:31:56;;;;;;;20.40;11.20;;;;;;;1.04;94.47;101419.45;134093;1300;22375;-72
2023/12/18 03:34:59;;;;;;;23.10;11.40;;;;;;;1.05;94.48;101413.30;134044;1299;22439;-72
2023/12/18 03:38:00;;;;;;;19.00;10.50;;;;;;;1.05;94.51;101414.33;134074;1305;23068;-72
2023/12/18 03:41:13;;;;;;;;;;;;;;;;;;;;;
2023/12/18 03:44:19;;;;;;;16.10;8.40;;;;;;;1.06;94.65;101410.48;134081;1295;22358;-72
2023/12/18 03:47:22;;;;;;;14.40;7.90;;;;;;;1.09;94.84;101409.27;134110;1305;22451;-72
2023/12/18 03:50:27;;;;;;;12.60;7.70;;;;;;;1.15;95.03;101417.38;134140;1301;22371;-73
2023/12/18 03:53:30;;;;;;;14.00;8.10;;;;;;;1.20;95.15;101416.94;134130;1298;22242;-72
2023/12/18 03:56:41;;;;;;;12.90;7.40;;;;;;;1.25;95.06;101417.38;134117;1297;22432;-72
2023/12/18 03:59:42;;;;;;;9.90;6.90;;;;;;;1.29;95.37;101416.30;134068;1298;22223;-71
2023/12/18 04:02:46;;;;;;;11.50;7.40;;;;;;;1.38;95.82;101412.88;134115;1305;22327;-72
2023/12/18 04:05:53;;;;;;;18.40;9.50;;;;;;;1.48;95.92;101412.21;134233;1304;22495;-72
2023/12/18 04:09:12;;;;;;;15.80;9.70;;;;;;;1.55;95.91;101411.02;134303;1301;22401;-72
2023/12/18 04:12:13;;;;;;;15.50;8.90;;;;;;;1.61;95.97;101405.48;134156;1298;22255;-72
2023/12/18 04:15:36;;;;;;;;;;;;;;;1.67;96.00;101399.06;134189;1298;22478;-71
2023/12/18 04:19:01;;;;;;;13.60;7.90;;;;;;;1.72;95.91;101408.04;134157;1304;22364;-72
2023/12/18 04:22:15;;;;;;;12.70;7.60;;;;;;;1.76;95.93;101412.37;134202;1298;22367;-72
2023/12/18 04:25:16;;;;;;;12.00;7.50;;;;;;;1.79;95.72;101415.90;134132;1298;23223;-72
2023/12/18 04:28:19;;;;;;;15.20;10.10;;;;;;;1.77;95.58;101411.29;134184;1304;22458;-72
2023/12/18 04:31:20;;;;;;;14.00;7.60;;;;;;;1.75;95.57;101403.69;134293;1304;22434;-72
2023/12/18 04:34:21;;;;;;;16.30;7.20;;;;;;;1.75;95.52;101408.43;134322;1305;22194;-72
2023/12/18 04:40:43;;;;;;;13.50;7.10;;;;;;;1.80;95.81;101409.92;134117;1301;22774;-72
2023/12/18 04:43:43;;;;;;;;;;;;;;;1.80;95.71;101419.48;134318;1297;22519;-72
2023/12/18 04:46:46;;;;;;;11.10;5.70;;;;;;;1.80;95.70;101420.91;134297;1305;22364;-72
2023/12/18 04:49:47;;;;;;;9.80;5.90;;;;;;;1.78;95.44;101419.22;134305;1297;22434;-72
2023/12/18 04:52:50;;;;;;;12.30;6.40;;;;;;;1.78;95.41;101420.99;134311;1301;22350;-72
2023/12/18 04:55:51;;;;;;;15.20;7.40;;;;;;;1.77;95.38;101425.78;134314;1298;22265;-72
2023/12/18 04:59:00;;;;;;;12.00;5.80;;;;;;;1.76;95.26;101415.02;134304;1299;23046;-72
2023/12/18 05:02:03;;;;;;;11.40;6.40;;;;;;;1.75;95.26;101413.27;134310;1296;22805;-71
2023/12/18 05:05:04;;;;;;;;;;;;;;;1.76;95.39;101406.24;134283;1304;22535;-72
2023/12/18 05:08:14;;;;;;;11.70;6.00;;;;;;;1.74;95.31;101403.73;134286;1298;22360;-72
2023/12/18 05:11:19;;;;;;;11.50;6.40;;;;;;;1.69;95.05;101408.35;134200;1300;22464;-72
2023/12/18 05:14:22;;;;;;;15.60;6.60;;;;;;;1.65;95.06;101415.37;134046;1304;22249;-72
2023/12/18 05:17:23;;;;;;;12.30;7.20;;;;;;;1.63;95.05;101412.34;134322;1291;22388;-72
2023/12/18 05:20:34;;;;;;;;;;;;;;;;;;;;;
2023/12/18 05:23:47;;;;;;;12.70;6.70;;;;;;;1.49;94.70;101425.09;134301;1304;22260;-72
2023/12/18 05:26:54;;;;;;;13.20;7.30;;;;;;;1.43;94.73;101428.17;134333;1298;22914;-72
2023/12/18 05:29:55;;;;;;;13.10;7.80;;;;;;;1.44;95.16;101424.64;134304;1298;22420;-72
2023/12/18 05:32:55;;;;;;;;;;;;;;;1.48;95.26;101426.38;134342;1304;23197;-72
2023/12/18 05:36:02;;;;;;;12.30;7.40;;;;;;;1.46;95.11;101427.49;134332;1305;22228;-72
2023/12/18 05:39:14;;;;;;;14.60;8.30;;;;;;;1.46;95.30;101422.59;134298;1304;22265;-72
2023/12/18 05:42:15;;;;;;;14.50;7.60;;;;;;;1.47;95.29;101426.57;134191;1301;22435;-72
2023/12/18 05:45:16;;;;;;;;;;;;;;;1.47;95.04;101428.16;134287;1298;22440;-72
2023/12/18 05:48:17;;;;;;;11.80;7.10;;;;;;;1.49;95.44;101420.89;134299;1298;22260;-73
2023/12/18 05:51:21;;;;;;;13.10;8.00;;;;;;;1.54;95.39;101421.71;134299;1304;22420;-71
2023/12/18 05:54:31;;;;;;;14.60;7.80;;;;;;;1.55;95.19;101418.71;134156;1297;22355;-73
2023/12/18 05:57:40;;;;;;;13.60;7.60;;;;;;;1.52;94.99;101409.74;134218;1304;23421;-72
2023/12/18 06:00:54;;;;;;;10.00;7.20;;;;;;;1.49;94.91;101408.72;134174;1298;22933;-72
2023/12/18 06:04:26;;;;;;;14.30;8.00;;;;;;;1.45;94.81;101406.79;134305;1301;22357;-72
2023/12/18 06:07:35;;;;;;;13.20;8.10;;;;;;;1.43;94.68;101411.27;134107;1288;22456;-72
2023/12/18 06:10:39;;;;;;;14.10;8.10;;;;;;;1.42;94.75;101415.85;134121;1298;22901;-71
2023/12/18 06:13:50;;;;;;;16.70;8.80;;;;;;;1.42;94.86;101407.83;134104;1298;22560;-71
2023/12/18 06:16:58;;;;;;;12.20;8.20;;;;;;;1.42;94.87;101412.02;134045;1296;22559;-71
2023/12/18 06:20:04;;;;;;;17.80;10.10;;;;;;;1.42;94.81;101420.73;134002;1301;22372;-71
2023/12/18 06:23:04;;;;;;;14.60;8.90;;;;;;;1.41;94.84;101418.85;134160;1298;22507;-71
2023/12/18 06:26:05;;;;;;;13.40;8.50;;;;;;;1.41;94.78;101423.77;134172;1299;22412;-71
2023/12/18 06:29:06;;;;;;;;;;;;;;;1.40;94.87;101421.89;134132;1298;22520;-76
2023/12/18 06:32:16;;;;;;;12.40;8.20;;;;;;;1.40;94.89;101427.27;134152;1300;22422;-74
2023/12/18 06:35:17;;;;;;;15.70;10.00;;;;;;;1.38;94.82;101423.19;134145;1305;22418;-75
2023/12/18 06:38:29;;;;;;;20.60;12.00;;;;;;;1.38;94.78;101421.48;134140;1305;22409;-74
2023/12/18 06:41:40;;;;;;;20.60;10.20;;;;;;;1.33;94.68;101413.48;134141;1304;23179;-74
2023/12/18 06:44:41;;;;;;;17.10;10.60;;;;;;;1.34;94.86;101411.18;134158;1301;22416;-73
2023/12/18 06:47:42;;;;;;;18.40;10.90;;;;;;;1.36;94.97;101408.30;134146;1305;22490;-73
2023/12/18 06:50:46;;;;;;;22.90;12.00;;;;;;;1.38;95.03;101410.14;134173;1298;22221;-72
2023/12/18 06:53:58;;;;;;;35.10;19.10;;;;;;;1.39;95.02;101412.17;134157;1304;26158;-72
2023/12/18 06:57:19;;;;;;;36.70;21.10;;;;;;;1.40;95.00;101415.45;134168;1301;22369;-75
2023/12/18 07:00:20;;;;;;;32.30;19.40;;;;;;;1.38;94.72;101419.70;134119;1304;22280;-74
2023/12/18 07:03:21;;;;;;;40.20;20.50;;;;;;;1.38;94.64;101426.88;134141;1298;22365;-74
2023/12/18 07:06:24;;;;;;;;;;;;;;;1.34;94.59;101427.20;134145;1298;22461;-74
2023/12/18 07:09:25;;;;;;;30.20;14.60;;;;;;;1.35;94.69;101431.71;134156;1298;22480;-74
2023/12/18 07:12:25;;;;;;;24.60;12.30;;;;;;;1.37;94.74;101439.48;134132;1298;22349;-74
2023/12/18 07:15:28;;;;;;;24.50;12.40;;;;;;;1.38;94.84;101445.16;133993;1298;23283;-74
2023/12/18 07:18:29;;;;;;;24.80;11.70;;;;;;;1.42;95.04;101440.81;133975;1298;22405;-75
2023/12/18 07:21:30;;;;;;;23.20;12.20;;;;;;;1.50;95.28;101432.03;134237;1298;22997;-74
2023/12/18 07:24:31;;;;;;;41.40;20.70;;;;;;;1.61;95.40;101430.20;134186;1298;22507;-74
2023/12/18 07:27:32;;;;;;;17.80;11.10;;;;;;;1.72;95.16;101416.44;134236;1298;22422;-74
2023/12/18 07:30:36;;;;;;;25.60;12.40;;;;;;;1.79;94.97;101418.51;134170;1298;22381;-74
2023/12/18 07:33:37;;;;;;;34.90;16.60;;;;;;;1.90;95.08;101415.55;134245;1304;22266;-71
2023/12/18 07:36:41;;;;;;;28.80;15.60;;;;;;;2.06;95.09;101414.50;134291;1298;23198;-73
2023/12/18 07:39:41;;;;;;;31.10;16.60;;;;;;;2.29;95.33;101429.17;134253;1304;23222;-74
2023/12/18 07:42:50;;;;;;;36.40;17.10;;;;;;;2.58;95.58;101433.02;134134;1298;22429;-73
2023/12/18 07:46:04;;;;;;;34.10;16.80;;;;;;;2.91;95.64;101432.80;134248;1304;22277;-74
2023/12/18 07:49:08;;;;;;;34.20;17.30;;;;;;;3.29;95.69;101429.28;134109;1301;22284;-73
2023/12/18 07:52:09;;;;;;;46.50;21.40;;;;;;;3.59;95.15;101430.30;134263;1298;23393;-73
2023/12/18 07:55:15;;;;;;;55.40;23.60;;;;;;;3.79;94.37;101434.75;134190;1298;22454;-74
2023/12/18 07:58:16;;;;;;;61.10;23.90;;;;;;;3.95;94.06;101436.55;134201;1297;23282;-73
2023/12/18 08:01:18;;;;;;;48.00;23.10;;;;;;;4.19;94.26;101437.92;134232;1298;22277;-74
2023/12/18 08:04:21;;;;;;;50.90;23.40;;;;;;;4.49;94.14;101438.38;134202;1297;22480;-75
2023/12/18 08:07:22;;;;;;;46.70;21.70;;;;;;;4.84;94.19;101438.61;134108;1298;22361;-75
2023/12/18 08:10:22;;;;;;;;;;;;;;;5.24;94.23;101438.30;134325;1304;22445;-75
2023/12/18 08:13:23;;;;;;;70.50;28.30;;;;;;;5.58;93.52;101435.92;134281;1298;22398;-74
2023/12/18 08:16:37;;;;;;;65.90;29.30;;;;;;;5.97;93.59;101436.50;134271;1298;22640;-74
2023/12/18 08:20:09;;;;;;;60.50;26.30;;;;;;;6.32;92.72;101434.60;134255;1304;22361;-75
2023/12/18 08:23:13;;;;;;;89.60;37.50;;;;;;;6.69;92.35;101436.04;134201;1298;23487;-74
2023/12/18 08:26:16;;;;;;;79.70;33.80;;;;;;;7.07;92.20;101436.48;134292;1298;23184;-76
2023/12/18 08:29:20;;;;;;;60.20;28.00;;;;;;;7.44;91.65;101431.63;134286;1298;22425;-74
2023/12/18 08:32:24;;;;;;;41.90;19.60;;;;;;;7.70;89.96;101433.02;134293;1298;22346;-75
2023/12/18 08:35:25;;;;;;;;;;;;;;;7.95;89.45;101438.52;134272;1297;23251;-74
2023/12/18 08:38:43;;;;;;;26.70;15.00;;;;;;;8.22;89.25;101447.00;134286;1298;22505;-74
2023/12/18 08:41:53;;;;;;;;;;;;;;;8.57;89.31;101441.64;134311;1298;22584;-74
2023/12/18 08:44:57;;;;;;;22.20;12.50;;;;;;;8.95;88.69;101449.02;134297;1290;23114;-74
2023/12/18 08:48:04;;;;;;;22.00;12.50;;;;;;;9.29;88.15;101453.83;134248;1291;22385;-73
2023/12/18 08:51:07;;;;;;;18.70;10.60;;;;;;;9.56;87.17;101449.90;134262;1298;22540;-74
2023/12/18 08:54:08;;;;;;;16.10;10.10;;;;;;;9.78;86.67;101449.75;134282;1298;22268;-74
2023/12/18 08:57:09;;;;;;;22.10;12.10;;;;;;;10.08;86.22;101454.69;134295;1301;22554;-74
2023/12/18 09:00:10;;;;;;;;;;;;;;;10.27;84.83;101445.98;134265;1298;23227;-74
2023/12/18 09:03:11;;;;;;;19.80;12.00;;;;;;;10.42;84.51;101451.38;134284;1298;22429;-74
2023/12/18 09:06:14;;;;;;;;;;;;;;;10.64;84.23;101451.92;134261;1298;23159;-74
2023/12/18 09:09:18;;;;;;;19.00;10.40;;;;;;;10.89;83.79;101440.61;134287;1298;22340;-73
2023/12/18 09:12:51;;;;;;;;;;;;;;;;;;;;;
2023/12/18 09:16:06;;;;;;;17.30;10.50;;;;;;;11.21;81.87;101442.69;134123;1298;22255;-74
2023/12/18 09:19:58;;;;;;;19.70;11.40;;;;;;;11.31;80.95;101442.82;134249;1297;22455;-73
2023/12/18 09:23:00;;;;;;;17.40;8.90;;;;;;;11.31;79.63;101440.70;134244;1293;22908;-74
2023/12/18 09:26:03;;;;;;;18.00;10.00;;;;;;;11.15;78.74;101441.75;134238;1298;23042;-74
2023/12/18 09:29:04;;;;;;;14.70;8.70;;;;;;;11.01;78.52;101435.05;134254;1298;22505;-74
2023/12/18 09:32:07;;;;;;;13.70;8.60;;;;;;;10.94;78.50;101433.55;134250;1298;22394;-74
2023/12/18 09:35:19;;;;;;;14.20;8.50;;;;;;;10.89;77.78;101435.59;134258;1298;22471;-74
2023/12/18 09:38:34;;;;;;;12.70;7.70;;;;;;;10.76;77.26;101429.52;134266;1298;23262;-74
2023/12/18 09:41:37;;;;;;;14.70;6.50;;;;;;;10.69;77.55;101431.54;134281;1298;22278;-73
2023/12/18 09:44:42;;;;;;;8.00;5.70;;;;;;;10.61;77.20;101431.88;134239;1298;23149;-74
2023/12/18 09:47:46;;;;;;;10.40;5.30;;;;;;;10.53;76.96;101427.27;134250;1298;23293;-74
2023/12/18 09:51:32;;;;;;;7.30;4.10;;;;;;;10.47;75.83;101424.63;134255;1298;22345;-73
2023/12/18 09:54:50;;;;;;;;;;;;;;;;;;;;;
2023/12/18 09:58:24;;;;;;;5.60;3.50;;;;;;;10.22;75.74;101412.62;134254;1298;22402;-74
2023/12/18 10:01:38;;;;;;;5.40;3.50;;;;;;;10.16;75.56;101404.45;134075;1298;22563;-73
2023/12/18 10:04:43;;;;;;;6.60;3.20;;;;;;;10.11;75.39;101403.33;134251;1301;22391;-74
2023/12/18 10:07:48;;;;;;;5.50;3.20;;;;;;;10.01;74.57;101393.79;134149;1305;23672;-73
2023/12/18 10:10:50;;;;;;;5.00;3.40;;;;;;;9.97;75.36;101395.15;134173;1298;23030;-74
2023/12/18 10:13:53;;;;;;;4.00;3.10;;;;;;;9.94;74.68;101390.64;134142;1298;23251;-73
2023/12/18 10:16:55;;;;;;;4.30;3.40;;;;;;;9.87;73.63;101387.50;134110;1298;23488;-73
2023/12/18 10:19:56;;;;;;;4.20;2.70;;;;;;;9.80;73.97;101399.13;134122;1298;22459;-73
2023/12/18 10:22:59;;;;;;;4.00;3.00;;;;;;;9.78;74.35;101395.32;134119;1298;22390;-74
2023/12/18 10:26:02;;;;;;;7.10;2.90;;;;;;;9.76;73.47;101390.21;133947;1298;22381;-74
2023/12/18 10:29:02;;;;;;;7.00;3.10;;;;;;;9.66;72.94;101381.16;134168;1304;25204;-74
2023/12/18 10:32:07;;;;;;;5.00;2.90;;;;;;;9.57;73.10;101379.67;134119;1298;23490;-73
2023/12/18 10:35:09;;;;;;;4.60;3.10;;;;;;;9.59;73.88;101381.62;134182;1298;23045;-74
2023/12/18 10:38:20;;;;;;;6.10;3.30;;;;;;;9.63;73.54;101380.70;134158;1298;22433;-74
2023/12/18 10:41:31;;;;;;;;;;;;;;;;;;;;;
2023/12/18 10:44:40;;;;;;;4.00;2.90;;;;;;;9.64;73.75;101361.57;134134;1298;22392;-73
2023/12/18 10:48:01;;;;;;;4.20;3.30;;;;;;;9.64;73.45;101355.57;134202;1298;22451;-73
2023/12/18 10:51:03;;;;;;;5.60;3.40;;;;;;;9.66;73.95;101356.09;134216;1300;22270;-74
2023/12/18 10:54:08;;;;;;;5.00;2.70;;;;;;;9.66;73.96;101352.00;134153;1298;22427;-74
2023/12/18 10:57:10;;;;;;;4.00;3.30;;;;;;;9.74;73.68;101357.35;134209;1298;22397;-73
2023/12/18 11:00:14;;;;;;;5.60;3.30;;;;;;;9.72;73.25;101356.13;134156;1283;22884;-73
2023/12/18 11:03:18;;;;;;;4.70;3.00;;;;;;;9.73;73.15;101349.64;134137;1298;22874;-73
2023/12/18 11:06:20;;;;;;;4.90;3.20;;;;;;;9.82;72.97;101349.41;134217;1298;22389;-73
2023/12/18 11:09:20;;;;;;;4.30;2.70;;;;;;;9.81;72.44;101345.92;134234;1301;22520;-72
2023/12/18 11:12:23;;;;;;;;;;;;;;;9.76;72.03;101341.27;134063;1298;23128;-73
2023/12/18 11:15:45;;;;;;;;;;;;;;;;;;;;;
2023/12/18 11:19:24;;;;;;;4.40;3.20;;;;;;;9.68;73.26;101317.23;134236;1298;22439;-73
2023/12/18 11:22:40;;;;;;;3.10;2.30;;;;;;;9.72;72.27;101302.91;133785;1298;22447;-74
2023/12/18 11:25:48;;;;;;;3.60;2.70;;;;;;;9.69;72.04;101306.69;134242;1298;22444;-73
2023/12/18 11:28:50;;;;;;;4.40;2.90;;;;;;;9.76;72.66;101310.73;134255;1304;22281;-73
2023/12/18 11:32:01;;;;;;;4.10;2.60;;;;;;;9.83;72.60;101306.89;134116;1298;25377;-75
2023/12/18 11:35:14;;;;;;;4.40;2.90;;;;;;;9.84;72.34;101308.58;134208;1298;23087;-74
2023/12/18 11:38:24;;;;;;;4.20;2.70;;;;;;;9.81;72.54;101306.37;134146;1298;23299;-74
2023/12/18 11:41:40;;;;;;;3.50;3.00;;;;;;;9.80;72.73;101321.80;134269;1300;22403;-74
2023/12/18 11:44:43;;;;;;;4.20;2.80;;;;;;;9.76;72.33;101329.45;134226;1301;23263;-74
2023/12/18 11:47:44;;;;;;;5.80;2.80;;;;;;;9.64;72.29;101328.55;134241;1298;22483;-74
2023/12/18 11:50:48;;;;;;;4.30;2.70;;;;;;;9.61;72.52;101328.91;134197;1298;22427;-74
2023/12/18 11:54:00;;;;;;;6.80;3.10;;;;;;;9.64;72.69;101341.36;134241;1294;23123;-74
2023/12/18 11:57:14;;;;;;;4.30;2.70;;;;;;;9.71;72.81;101346.61;134198;1298;23351;-74
2023/12/18 12:00:19;;;;;;;5.40;3.60;;;;;;;9.76;72.26;101343.02;134253;1298;22269;-75
2023/12/18 12:03:22;;;;;;;4.70;3.20;;;;;;;9.80;72.44;101325.07;134193;1301;23024;-75
2023/12/18 12:06:24;;;;;;;5.10;3.10;;;;;;;9.85;72.33;101323.14;134248;1298;22231;-75
2023/12/18 12:09:25;;;;;;;6.10;3.90;;;;;;;9.79;71.49;101320.65;134248;1298;22481;-74
2023/12/18 12:12:25;;;;;;;4.40;3.40;;;;;;;9.62;71.16;101318.42;134216;1298;22399;-75
2023/12/18 12:15:30;;;;;;;;;;;;;;;9.45;71.21;101312.80;134265;1298;23231;-74
2023/12/18 12:18:34;;;;;;;5.00;3.80;;;;;;;9.20;71.45;101318.16;134195;1298;22513;-74
2023/12/18 12:21:37;;;;;;;6.20;4.40;;;;;;;8.98;71.34;101316.04;134149;1298;22398;-74
2023/12/18 12:24:43;;;;;;;7.10;4.20;;;;;;;8.74;71.15;101306.61;134213;1298;22466;-74
2023/12/18 12:27:47;;;;;;;6.20;4.70;;;;;;;8.55;71.72;101315.57;134225;1298;23248;-75
2023/12/18 12:30:48;;;;;;;8.30;4.10;;;;;;;8.50;72.24;101316.61;134210;1298;22416;-74
2023/12/18 12:33:54;;;;;;;6.70;3.70;;;;;;;8.51;72.63;101307.71;134264;1298;22394;-74
2023/12/18 12:37:01;;;;;;;6.70;3.90;;;;;;;8.56;72.82;101312.14;134229;1297;23352;-75
2023/12/18 12:40:08;;;;;;;5.20;3.40;;;;;;;8.60;72.70;101319.19;134249;1294;22479;-74
2023/12/18 12:43:13;;;;;;;4.10;2.90;;;;;;;8.59;72.54;101327.36;134231;1298;22266;-75
2023/12/18 12:46:14;;;;;;;7.80;4.30;;;;;;;8.62;72.66;101329.60;134172;1298;22376;-75
2023/12/18 12:49:14;;;;;;;6.80;4.00;;;;;;;8.61;72.75;101326.58;134040;1299;23588;-75
2023/12/18 12:52:15;;;;;;;;;;;;;;;8.59;72.84;101332.66;134283;1301;22500;-74
2023/12/18 12:55:16;;;;;;;5.50;3.80;;;;;;;8.55;72.81;101331.42;134192;1297;22430;-74
2023/12/18 12:59:01;;;;;;;7.30;4.30;;;;;;;8.51;72.68;101326.62;134244;1297;22268;-76
2023/12/18 13:02:01;;;;;;;8.40;5.30;;;;;;;8.44;72.61;101325.61;134196;1298;22376;-74
2023/12/18 13:05:08;;;;;;;9.00;4.90;;;;;;;8.42;72.51;101321.01;134227;1298;22465;-74
2023/12/18 13:08:20;;;;;;;;;;;;;;;;;;;;;
2023/12/18 13:11:38;;;;;;;7.10;4.10;;;;;;;8.43;73.06;101309.59;134201;1298;22229;-75
2023/12/18 13:14:46;;;;;;;5.50;3.70;;;;;;;8.49;73.11;101306.86;134186;1298;22224;-74
2023/12/18 13:17:46;;;;;;;6.90;3.30;;;;;;;8.50;73.18;101314.50;134229;1298;22508;-74
2023/12/18 13:20:47;;;;;;;;;;;;;;;8.51;73.05;101315.66;134218;1298;22452;-74
2023/12/18 13:23:48;;;;;;;6.70;3.80;;;;;;;8.49;72.83;101311.09;134234;1300;24303;-74
2023/12/18 13:26:49;;;;;;;;;;;;;;;8.41;72.63;101304.88;134220;1298;22531;-74
2023/12/18 13:30:03;;;;;;;5.40;3.80;;;;;;;8.34;73.08;101303.47;134196;1298;22380;-75
2023/12/18 13:33:04;;;;;;;7.70;4.20;;;;;;;8.30;73.03;101300.78;133907;1301;23477;-74
2023/12/18 13:36:05;;;;;;;6.70;4.00;;;;;;;8.27;73.05;101301.20;134182;1295;22683;-74
2023/12/18 13:39:10;;;;;;;5.70;3.80;;;;;;;8.24;73.06;101300.34;134230;1298;22526;-74
2023/12/18 13:42:14;;;;;;;5.20;3.50;;;;;;;8.19;72.87;101308.16;134250;1298;23540;-74
2023/12/18 13:45:16;;;;;;;8.20;4.70;;;;;;;8.13;73.23;101316.41;134255;1298;22357;-74
2023/12/18 13:48:20;;;;;;;10.90;4.50;;;;;;;8.06;73.02;101317.09;134219;1298;22503;-74
2023/12/18 13:51:29;;;;;;;6.90;4.80;;;;;;;8.00;73.35;101323.60;134227;1298;23303;-74
2023/12/18 13:54:50;;;;;;;;;;;;;;;;;;;;;
2023/12/18 13:57:59;;;;;;;11.00;4.90;;;;;;;7.91;73.50;101318.84;134178;1298;22240;-75
2023/12/18 14:01:00;;;;;;;7.50;3.90;;;;;;;7.87;73.49;101314.90;134223;1304;22256;-75
2023/12/18 14:04:01;;;;;;;;;;;;;;;7.81;73.46;101308.69;134229;1295;22450;-74
2023/12/18 14:07:02;;;;;;;6.30;4.20;;;;;;;7.72;73.44;101301.80;134205;1294;22439;-74
2023/12/18 14:10:03;;;;;;;;;;;;;;;7.65;73.46;101300.94;134213;1305;23123;-74
2023/12/18 14:13:06;;;;;;;4.90;3.70;;;;;;;7.55;73.51;101305.93;134189;1302;22224;-74
2023/12/18 14:16:08;;;;;;;9.70;4.40;;;;;;;7.47;73.83;101307.83;134240;1298;22349;-73
2023/12/18 14:19:08;;;;;;;6.30;3.80;;;;;;;7.38;73.66;101308.17;134196;1304;22408;-73
2023/12/18 14:22:09;;;;;;;5.90;4.00;;;;;;;7.32;73.77;101310.34;134219;1298;22427;-74
2023/12/18 14:25:10;;;;;;;5.20;3.50;;;;;;;7.31;73.99;101308.15;134176;1298;22253;-74
2023/12/18 14:28:10;;;;;;;7.20;3.70;;;;;;;7.25;73.89;101313.19;134256;1299;22376;-74
2023/12/18 14:31:17;;;;;;;6.70;4.00;;;;;;;7.20;74.32;101317.78;134225;1301;22265;-74
2023/12/18 14:34:18;;;;;;;7.70;4.20;;;;;;;7.14;74.24;101319.96;134248;1298;22395;-74
2023/12/18 14:37:19;;;;;;;5.20;3.60;;;;;;;7.09;74.46;101317.86;134190;1298;22523;-75
2023/12/18 14:40:28;;;;;;;9.40;4.90;;;;;;;7.05;74.49;101319.45;134254;1301;23649;-74
2023/12/18 14:43:29;;;;;;;8.70;4.30;;;;;;;7.02;74.85;101319.64;134225;1301;23015;-74
2023/12/18 14:46:33;;;;;;;8.20;4.70;;;;;;;7.00;74.97;101324.23;134241;1302;23248;-74